This is the latest recevied weather packets stored in our database for station/object OM8AGG-10. If no packets are shown the sender has not sent any weather packets the latest 10 day(s).
| Time | Temp. | Humidity | Pressure | Rain* | Wind** | Luminosity | Snow |
|---|---|---|---|---|---|---|---|
| 1788704933 | 26.11° C | 26% | 1025.4 hPa | - | - | - | - |
| 1788702233 | 25.56° C | 25% | 1025.1 hPa | - | - | - | - |
| 1788697732 | 25.56° C | 25% | 1024.9 hPa | - | - | - | - |
| 1788696832 | 23.33° C | 30% | 1025.1 hPa | - | - | - | - |
| 1788695932 | 25.56° C | 26% | 1025 hPa | - | - | - | - |
| 1788694131 | 26.11° C | 26% | 1025.3 hPa | - | - | - | - |
| 1788693231 | 23.89° C | 29% | 1025.3 hPa | - | - | - | - |
| 1788690531 | 25° C | 30% | 1025.4 hPa | - | - | - | - |
| 1788689631 | 23.89° C | 31% | 1025.3 hPa | - | - | - | - |
| 1788688730 | 22.78° C | 29% | 1025.4 hPa | - | - | - | - |
| 1788686930 | 23.33° C | 30% | 1025.2 hPa | - | - | - | - |
| 1788686030 | 22.78° C | 31% | 1025.4 hPa | - | - | - | - |
| 1788685130 | 21.67° C | 35% | 1025.5 hPa | - | - | - | - |
| 1788684230 | 22.22° C | 37% | 1025.5 hPa | - | - | - | - |
| 1788683330 | 22.22° C | 40% | 1025.5 hPa | - | - | - | - |
| 1788682430 | 20.56° C | 44% | 1025.4 hPa | - | - | - | - |
| 1788679729 | 19.44° C | 47% | 1025 hPa | - | - | - | - |
| 1788678829 | 18.33° C | 53% | 1024.9 hPa | - | - | - | - |
| 1788677929 | 17.22° C | 58% | 1024.8 hPa | - | - | - | - |
| 1788676129 | 13.33° C | 85% | 1024.8 hPa | - | - | - | - |
| 1788675229 | 12.22° C | 90% | 1024.7 hPa | - | - | - | - |
| 1788673438 | 11.67° C | 95% | 1024.4 hPa | - | - | - | - |
| 1788672528 | 10.56° C | 96% | 1024.4 hPa | - | - | - | - |
| 1788671628 | 10.56° C | 95% | 1024.4 hPa | - | - | - | - |
| 1788670728 | 9.44° C | 100% | 1024.2 hPa | - | - | - | - |
* Rain since midnight (hover to see other rain measurements)
** Current wind speed in m/s (hover to see current wind gust speed)